Terminal Aerodrome Forecast
Issued by NWS Sterling, VA

Home | Current Version | Previous Version | Text Only | Print | Product List | Glossary On
Versions: 1 2 3 4 5 6 7 8 9 10 11 12 13 14 15 16 17 18 19 20 21
000
FTUS41 KLWX 300837 AAA
TAFBWI
TAF AMD
KBWI 300837Z 3009/3112 30003KT P6SM BKN022
     FM301500 34004KT P6SM -SHRA OVC040
     FM301700 23004KT P6SM OVC040
     FM301900 18004KT P6SM OVC070
     FM302200 14005KT P6SM BKN100
     FM310300 20004KT P6SM BKN120
     FM310700 VRB03KT 3SM BR BKN120
     FM311000 VRB03KT P6SM BKN050=

USA.gov is the U.S. government's official web portal to all federal, state and local government web resources and services.